Time;durP1;ratioP1;P1;durP2;ratioP2;P2;SDS_P1;SDS_P2;PMS_P1;PMS_P2;Temp;Humidity;BMP_temperature;BMP_pressure;BME280_temperature;BME280_humidity;BME280_pressure;Samples;Min_cycle;Max_cycle;Signal;HPM_P1;HPM_P2
2022/11/09 00:00:53;;;;;;;;;;;10.30;81.20;;;-151.14;100.00;62537.16;5099467;28;19924;-80
2022/11/09 00:03:22;;;;;;;;;;;10.30;81.10;;;-151.14;100.00;62537.16;5081170;28;19920;-80
2022/11/09 00:05:56;;;;;;;;;;;10.30;81.10;;;-151.14;100.00;62537.16;5095481;28;19920;-80
2022/11/09 00:08:24;;;;;;;;;;;10.30;81.00;;;-151.14;100.00;62537.16;5099633;28;19934;-79
2022/11/09 00:10:52;;;;;;;;;;;10.30;81.00;;;-151.14;100.00;62537.16;5117913;28;20200;-79
2022/11/09 00:13:20;;;;;;;;;;;10.30;81.00;;;-151.14;100.00;62537.16;5117796;28;19926;-79
2022/11/09 00:15:47;;;;;;;;;;;10.30;81.10;;;-151.14;100.00;62537.16;5116740;28;19920;-80
2022/11/09 00:18:15;;;;;;;;;;;10.30;81.00;;;-151.14;100.00;62537.16;5117865;28;20119;-79
2022/11/09 00:20:45;;;;;;;;;;;10.30;81.00;;;-151.14;100.00;62537.16;5083046;28;19920;-79
2022/11/09 00:23:12;;;;;;;;;;;10.30;81.00;;;-151.14;100.00;62537.16;5099657;28;19920;-80
2022/11/09 00:25:40;;;;;;;;;;;10.30;81.00;;;-151.14;100.00;62537.16;5082585;28;19919;-79
2022/11/09 00:28:08;;;;;;;;;;;10.30;81.10;;;-151.14;100.00;62537.16;5117695;28;19927;-79
2022/11/09 00:30:36;;;;;;;;;;;10.30;81.10;;;-151.14;100.00;62537.16;5099898;28;19920;-79
2022/11/09 00:33:04;;;;;;;;;;;10.30;81.10;;;-151.14;100.00;62537.16;5099721;28;19926;-79
2022/11/09 00:35:32;;;;;;;;;;;10.30;81.10;;;-151.14;100.00;62537.16;5099066;28;19927;-79
2022/11/09 00:38:01;;;;;;;;;;;10.30;81.10;;;9.23;100.00;62537.16;5082791;28;19942;-79
2022/11/09 00:40:29;;;;;;;;;;;10.30;81.20;;;-151.14;100.00;62537.16;5099538;28;19920;-79
2022/11/09 00:42:58;;;;;;;;;;;10.30;81.10;;;-151.14;100.00;62537.16;5080076;28;19926;-79
2022/11/09 00:45:26;;;;;;;;;;;10.30;81.20;;;-151.14;100.00;62537.16;5113738;28;19943;-80
2022/11/09 00:47:54;;;;;;;;;;;10.30;81.20;;;-151.14;100.00;62537.16;5096098;28;19926;-79
2022/11/09 00:50:22;;;;;;;;;;;10.30;81.10;;;-151.14;100.00;62537.16;5096202;28;19920;-79
2022/11/09 00:52:50;;;;;;;;;;;10.20;80.90;;;-151.14;100.00;62537.16;5096165;28;19920;-80
2022/11/09 00:55:20;;;;;;;;;;;10.20;81.00;;;-151.14;100.00;62537.16;5095330;28;19920;-80
2022/11/09 00:57:49;;;;;;;;;;;10.20;81.00;;;-151.14;100.00;62537.16;5096096;28;19920;-79
2022/11/09 01:00:17;;;;;;;;;;;10.30;81.20;;;-151.14;100.00;62537.16;5113967;28;19919;-80
2022/11/09 01:02:45;;;;;;;;;;;10.20;81.10;;;-151.14;100.00;62537.16;5095980;28;19920;-80
2022/11/09 01:05:13;;;;;;;;;;;10.20;81.10;;;-151.14;100.00;62537.16;5113406;28;19926;-79
2022/11/09 01:07:41;;;;;;;;;;;10.20;81.20;;;-151.14;100.00;62537.16;5095577;28;19926;-79
2022/11/09 01:10:09;;;;;;;;;;;10.20;81.10;;;-151.14;100.00;62537.16;5095945;28;19926;-79
2022/11/09 01:12:39;;;;;;;;;;;10.20;81.20;;;-151.14;100.00;62537.16;5095692;28;19921;-79
2022/11/09 01:15:09;;;;;;;;;;;10.20;81.20;;;-151.14;100.00;62537.16;5095447;28;19920;-79
2022/11/09 01:17:37;;;;;;;;;;;10.20;81.20;;;-151.14;100.00;62537.16;5095679;28;19920;-79
2022/11/09 01:20:06;;;;;;;;;;;10.20;81.20;;;-151.14;100.00;62537.16;5078931;28;20115;-80
2022/11/09 01:22:33;;;;;;;;;;;10.20;81.30;;;-151.14;100.00;62537.16;5095534;28;20138;-79
2022/11/09 01:25:01;;;;;;;;;;;10.20;81.20;;;-151.14;100.00;62537.16;5095190;28;20207;-80
2022/11/09 01:27:29;;;;;;;;;;;10.20;81.20;;;-151.14;100.00;62537.16;5112468;28;19919;-80
2022/11/09 01:29:59;;;;;;;;;;;10.20;81.30;;;-151.14;100.00;62537.16;5096096;28;19926;-79
2022/11/09 01:32:27;;;;;;;;;;;10.20;81.20;;;-151.14;100.00;62537.16;5113990;28;19920;-80
2022/11/09 01:34:55;;;;;;;;;;;10.20;81.20;;;-151.14;100.00;62537.16;5113746;28;20203;-80
2022/11/09 01:37:23;;;;;;;;;;;10.20;81.30;;;-151.14;100.00;62537.16;5095812;28;19920;-79
2022/11/09 01:39:51;;;;;;;;;;;10.20;81.30;;;-151.14;100.00;62537.16;5079252;28;19934;-79
2022/11/09 01:42:23;;;;;;;;;;;10.20;81.30;;;-151.14;100.00;62537.16;5095875;28;19919;-80
2022/11/09 01:45:23;;;;;;;;;;;10.20;81.40;;;-151.14;100.00;62537.16;5095706;28;19920;-80
2022/11/09 01:47:54;;;;;;;;;;;10.20;81.40;;;-151.14;100.00;62537.16;5112876;28;19920;-79
2022/11/09 01:50:32;;;;;;;;;;;10.20;81.40;;;-151.14;100.00;62537.16;5113274;28;19934;-79
2022/11/09 01:53:00;;;;;;;;;;;10.20;81.50;;;-151.14;100.00;62537.16;5077612;28;20092;-80
2022/11/09 01:55:28;;;;;;;;;;;10.20;81.40;;;-151.14;100.00;62537.16;5093043;28;19920;-79
2022/11/09 01:57:58;;;;;;;;;;;10.20;81.40;;;-151.14;100.00;62537.16;5059162;28;19920;-80
2022/11/09 02:00:28;;;;;;;;;;;10.20;81.40;;;-151.14;100.00;62537.16;5059242;28;19926;-79
2022/11/09 02:02:58;;;;;;;;;;;10.20;81.40;;;-151.14;100.00;62537.16;5076252;28;19920;-80
2022/11/09 02:05:29;;;;;;;;;;;10.20;81.30;;;-151.14;100.00;62537.16;5075538;28;19921;-80
2022/11/09 02:07:57;;;;;;;;;;;10.20;81.50;;;-151.14;100.00;62537.16;5059494;28;19920;-79
2022/11/09 02:10:27;;;;;;;;;;;10.20;81.50;;;-151.14;100.00;62537.16;5059741;28;19920;-79
2022/11/09 02:12:55;;;;;;;;;;;10.20;81.50;;;-151.14;100.00;62537.16;5110124;28;19927;-79
2022/11/09 02:15:23;;;;;;;;;;;10.20;81.40;;;-151.14;100.00;62537.16;5076099;28;19920;-79
2022/11/09 02:17:53;;;;;;;;;;;10.20;81.40;;;-151.14;100.00;62537.16;5076709;28;20204;-79
2022/11/09 02:20:23;;;;;;;;;;;10.20;81.50;;;-151.14;100.00;62537.16;5076666;28;19920;-79
2022/11/09 02:22:52;;;;;;;;;;;10.20;81.50;;;-151.14;100.00;62537.16;5059811;28;19927;-79
2022/11/09 02:25:22;;;;;;;;;;;10.20;81.60;;;-151.14;100.00;62537.16;5059741;28;19925;-78
2022/11/09 02:27:50;;;;;;;;;;;10.20;81.60;;;-151.14;100.00;62537.16;5076546;28;19927;-79
2022/11/09 02:30:18;;;;;;;;;;;10.20;81.50;;;-151.14;100.00;62537.16;5077339;28;19920;-79
2022/11/09 02:32:49;;;;;;;;;;;10.20;81.60;;;18.08;100.00;62537.16;5077050;28;19927;-79
2022/11/09 02:35:17;;;;;;;;;;;10.20;81.50;;;-151.14;100.00;62537.16;5059946;28;19920;-79
2022/11/09 02:37:48;;;;;;;;;;;10.20;81.60;;;-151.14;100.00;62537.16;5086811;28;19936;-79
2022/11/09 02:40:18;;;;;;;;;;;10.20;81.60;;;-151.14;100.00;62537.16;5097196;28;19934;-79
2022/11/09 02:42:46;;;;;;;;;;;10.20;81.50;;;-151.14;100.00;62537.16;5097542;28;20300;-79
2022/11/09 02:45:14;;;;;;;;;;;10.20;81.50;;;-151.14;100.00;62537.16;5080375;28;20124;-79
2022/11/09 02:47:43;;;;;;;;;;;10.20;81.60;;;-151.14;100.00;62537.16;5097742;28;20104;-79
2022/11/09 02:50:11;;;;;;;;;;;10.20;81.70;;;18.08;100.00;62537.16;5097884;28;19926;-79
2022/11/09 02:52:38;;;;;;;;;;;10.20;81.60;;;-151.14;100.00;62537.16;5105209;28;19920;-79
2022/11/09 02:55:09;;;;;;;;;;;10.20;81.60;;;-151.14;100.00;62537.16;5073426;28;20203;-79
2022/11/09 02:57:37;;;;;;;;;;;10.20;81.70;;;-151.14;100.00;62537.16;5107645;28;19920;-79
2022/11/09 03:00:07;;;;;;;;;;;10.20;81.60;;;-151.14;100.00;62537.16;5074077;28;20225;-79
2022/11/09 03:02:36;;;;;;;;;;;10.20;81.70;;;-151.14;100.00;62537.16;5057159;28;19927;-79
2022/11/09 03:05:07;;;;;;;;;;;10.20;81.70;;;-151.14;100.00;62537.16;5073215;28;20393;-79
2022/11/09 03:07:35;;;;;;;;;;;10.20;81.70;;;-151.14;100.00;62537.16;5073259;28;19920;-79
2022/11/09 03:10:04;;;;;;;;;;;10.20;81.60;;;-151.14;100.00;62537.16;5090819;28;19926;-78
2022/11/09 03:12:33;;;;;;;;;;;10.20;81.60;;;-151.14;100.00;62537.16;5073798;28;19927;-79
2022/11/09 03:15:08;;;;;;;;;;;10.20;81.60;;;-151.14;100.00;62537.16;5073349;28;19920;-79
2022/11/09 03:17:39;;;;;;;;;;;10.20;81.70;;;-151.14;100.00;62537.16;5060400;28;19933;-79
2022/11/09 03:20:09;;;;;;;;;;;10.20;81.70;;;-151.14;100.00;62537.16;5093968;28;19926;-79
2022/11/09 03:22:37;;;;;;;;;;;10.20;81.60;;;-151.14;100.00;62537.16;5076829;28;19920;-79
2022/11/09 03:25:07;;;;;;;;;;;10.20;81.70;;;-151.14;100.00;62537.16;5110368;28;19926;-79
2022/11/09 03:27:36;;;;;;;;;;;10.20;81.70;;;-151.14;100.00;62537.16;5111689;28;19920;-79
2022/11/09 03:30:06;;;;;;;;;;;10.20;81.70;;;-151.14;100.00;62537.16;5093773;28;19928;-79
2022/11/09 03:32:34;;;;;;;;;;;10.20;81.70;;;-151.14;100.00;62537.16;5092616;28;20234;-79
2022/11/09 03:35:02;;;;;;;;;;;10.20;81.60;;;-151.14;100.00;62537.16;5075670;28;20096;-79
2022/11/09 03:37:30;;;;;;;;;;;10.20;81.70;;;-151.14;100.00;62537.16;5076657;28;19926;-79
2022/11/09 03:39:58;;;;;;;;;;;10.20;81.60;;;-151.14;100.00;62537.16;5076752;28;19920;-79
2022/11/09 03:42:26;;;;;;;;;;;10.20;81.70;;;-151.14;100.00;62537.16;5093569;28;19920;-79
2022/11/09 03:44:55;;;;;;;;;;;10.20;81.60;;;-151.14;100.00;62537.16;5076261;28;20097;-79
2022/11/09 03:47:23;;;;;;;;;;;10.20;81.70;;;-151.14;100.00;62537.16;5076713;28;19927;-79
2022/11/09 03:49:51;;;;;;;;;;;10.20;81.70;;;-151.14;100.00;62537.16;5111494;28;19926;-79
2022/11/09 03:52:19;;;;;;;;;;;10.20;81.70;;;-151.14;100.00;62537.16;5076484;28;19920;-79
2022/11/09 03:54:47;;;;;;;;;;;10.20;81.70;;;-151.14;100.00;62537.16;5076147;28;19920;-79
2022/11/09 03:57:15;;;;;;;;;;;10.20;81.70;;;-151.14;100.00;62537.16;5093345;28;19919;-79
2022/11/09 03:59:43;;;;;;;;;;;10.20;81.70;;;-151.14;100.00;62537.16;5093380;28;20122;-79
2022/11/09 04:02:13;;;;;;;;;;;10.20;81.80;;;-151.14;100.00;62537.16;5093424;28;19946;-79
2022/11/09 04:04:40;;;;;;;;;;;10.20;81.90;;;-151.14;100.00;62537.16;5092810;28;20122;-79
2022/11/09 04:07:09;;;;;;;;;;;10.20;81.80;;;-151.14;100.00;62537.16;5110758;28;19927;-79
2022/11/09 04:09:37;;;;;;;;;;;10.20;81.80;;;-151.14;100.00;62537.16;5076322;28;19920;-79
2022/11/09 04:12:05;;;;;;;;;;;10.20;81.90;;;-151.14;100.00;62537.16;5111267;28;19926;-79
2022/11/09 04:14:33;;;;;;;;;;;10.20;81.90;;;-151.14;100.00;62537.16;5093577;28;19920;-79
2022/11/09 04:17:01;;;;;;;;;;;10.20;81.80;;;-151.14;100.00;62537.16;5093717;28;19919;-79
2022/11/09 04:19:30;;;;;;;;;;;10.20;81.90;;;-151.14;100.00;62537.16;5096924;28;19920;-79
2022/11/09 04:21:58;;;;;;;;;;;10.20;81.90;;;-151.14;100.00;62537.16;5115550;28;20203;-79
2022/11/09 04:24:26;;;;;;;;;;;10.20;81.80;;;-151.14;100.00;62537.16;5080282;28;19920;-79
2022/11/09 04:26:54;;;;;;;;;;;10.20;81.90;;;-151.14;100.00;62537.16;5115576;28;19942;-79
2022/11/09 04:29:22;;;;;;;;;;;10.10;81.90;;;-151.14;100.00;62537.16;5115682;28;19926;-79
2022/11/09 04:31:50;;;;;;;;;;;10.20;81.90;;;-151.14;100.00;62537.16;5115934;28;19926;-79
2022/11/09 04:34:18;;;;;;;;;;;10.20;81.90;;;-151.14;100.00;62537.16;5080483;28;19926;-79
2022/11/09 04:36:48;;;;;;;;;;;10.20;81.90;;;-151.14;100.00;62537.16;5097318;28;20207;-79
2022/11/09 04:39:16;;;;;;;;;;;10.10;81.80;;;-151.14;100.00;62537.16;5115607;28;19942;-79
2022/11/09 04:41:44;;;;;;;;;;;10.10;81.90;;;-151.14;100.00;62537.16;5098013;28;19919;-79
2022/11/09 04:44:12;;;;;;;;;;;10.20;81.90;;;-151.14;100.00;62537.16;5114380;28;19920;-79
2022/11/09 04:46:40;;;;;;;;;;;10.10;81.90;;;-151.14;100.00;62537.16;5080255;28;20241;-79
2022/11/09 04:49:08;;;;;;;;;;;10.10;81.80;;;-151.14;100.00;62537.16;5097442;28;19920;-79
2022/11/09 04:51:36;;;;;;;;;;;10.10;81.80;;;-151.14;100.00;62537.16;5097685;28;19920;-79
2022/11/09 04:54:05;;;;;;;;;;;10.10;81.90;;;-151.14;100.00;62537.16;5097274;28;19923;-79
2022/11/09 04:56:33;;;;;;;;;;;10.10;81.90;;;-151.14;100.00;62537.16;5114533;28;19942;-79
2022/11/09 04:59:01;;;;;;;;;;;10.20;81.90;;;-151.14;100.00;62537.16;5115411;28;20211;-78
2022/11/09 05:01:29;;;;;;;;;;;10.10;81.90;;;-151.14;100.00;62537.16;5060838;28;19920;-79
2022/11/09 05:03:57;;;;;;;;;;;10.10;81.90;;;-151.14;100.00;62537.16;5060756;28;19920;-79
2022/11/09 05:06:34;;;;;;;;;;;10.10;81.90;;;-151.14;100.00;62537.16;5094084;28;19920;-79
2022/11/09 05:09:03;;;;;;;;;;;10.10;81.90;;;-151.14;100.00;62537.16;5077807;28;20135;-79
2022/11/09 05:11:32;;;;;;;;;;;10.10;81.90;;;-151.14;100.00;62537.16;5095794;28;19920;-79
2022/11/09 05:14:00;;;;;;;;;;;10.10;82.00;;;-151.14;100.00;62537.16;5077654;28;19934;-79
2022/11/09 05:16:28;;;;;;;;;;;10.10;81.80;;;-151.14;100.00;62537.16;5077193;28;20101;-79
2022/11/09 05:18:56;;;;;;;;;;;10.10;81.90;;;-151.14;100.00;62537.16;5061378;28;19924;-79
2022/11/09 05:21:24;;;;;;;;;;;10.10;81.90;;;-151.14;100.00;62537.16;5078245;28;19926;-79
2022/11/09 05:24:01;;;;;;;;;;;10.10;82.00;;;-151.14;100.00;62537.16;5078179;28;19927;-79
2022/11/09 05:26:30;;;;;;;;;;;10.10;82.00;;;-151.14;100.00;62537.16;5077885;28;19927;-79
2022/11/09 05:29:00;;;;;;;;;;;10.10;82.00;;;-151.14;100.00;62537.16;5095498;28;19939;-79
2022/11/09 05:31:28;;;;;;;;;;;10.10;82.00;;;-151.14;100.00;62537.16;5095339;28;19923;-79
2022/11/09 05:33:55;;;;;;;;;;;10.10;82.00;;;-151.14;100.00;62537.16;5116509;28;19924;-79
2022/11/09 05:36:23;;;;;;;;;;;10.10;82.00;;;-151.14;100.00;62537.16;5115830;28;19919;-79
2022/11/09 05:38:51;;;;;;;;;;;10.10;82.00;;;-151.14;100.00;62537.16;5095341;28;19920;-79
2022/11/09 05:41:19;;;;;;;;;;;10.10;82.00;;;-151.14;100.00;62537.16;5095351;28;20114;-79
2022/11/09 05:43:47;;;;;;;;;;;10.10;82.00;;;-151.14;100.00;62537.16;5095031;28;19926;-79
2022/11/09 05:46:17;;;;;;;;;;;10.10;82.00;;;-151.14;100.00;62537.16;5094889;28;19920;-79
2022/11/09 05:48:45;;;;;;;;;;;10.10;82.00;;;-151.14;100.00;62537.16;5095097;28;19920;-79
2022/11/09 05:51:13;;;;;;;;;;;10.10;82.00;;;-151.14;100.00;62537.16;5095035;28;19920;-79
2022/11/09 05:53:42;;;;;;;;;;;10.10;82.00;;;-151.14;100.00;62537.16;5095131;28;19920;-79
2022/11/09 05:56:11;;;;;;;;;;;10.10;81.90;;;-151.14;100.00;62537.16;5077826;28;19920;-79
2022/11/09 05:58:40;;;;;;;;;;;10.10;81.90;;;-151.14;100.00;62537.16;5095047;28;19926;-79
2022/11/09 06:01:09;;;;;;;;;;;10.10;82.10;;;-151.14;100.00;62537.16;5094870;28;19920;-79
2022/11/09 06:03:39;;;;;;;;;;;10.10;82.10;;;-151.14;100.00;62537.16;5094873;28;19919;-79
2022/11/09 06:06:07;;;;;;;;;;;10.10;82.10;;;-151.14;100.00;62537.16;5094743;28;20081;-79
2022/11/09 06:08:35;;;;;;;;;;;10.10;82.20;;;-151.14;100.00;62537.16;5094701;28;19919;-79
2022/11/09 06:11:05;;;;;;;;;;;10.10;82.10;;;-151.14;100.00;62537.16;5077916;28;19951;-79
2022/11/09 06:13:33;;;;;;;;;;;10.10;82.20;;;-151.14;100.00;62537.16;5094588;28;19934;-79
2022/11/09 06:16:04;;;;;;;;;;;10.10;82.20;;;-151.14;100.00;62537.16;5077640;28;19919;-79
2022/11/09 06:18:33;;;;;;;;;;;10.10;82.20;;;-151.14;100.00;62537.16;5094697;28;19926;-79
2022/11/09 06:21:03;;;;;;;;;;;10.10;82.00;;;-151.14;100.00;62537.16;5094844;28;19920;-79
2022/11/09 06:23:31;;;;;;;;;;;10.10;82.10;;;-151.14;100.00;62537.16;5094497;28;19926;-79
2022/11/09 06:25:59;;;;;;;;;;;10.10;82.00;;;-151.14;100.00;62537.16;5094131;28;19926;-79
2022/11/09 06:28:27;;;;;;;;;;;10.10;82.00;;;-151.14;100.00;62537.16;5094543;28;19920;-79
2022/11/09 06:30:57;;;;;;;;;;;10.10;82.10;;;-151.14;100.00;62537.16;5094462;28;20211;-79
2022/11/09 06:33:25;;;;;;;;;;;10.10;82.00;;;-151.14;100.00;62537.16;5094208;28;19920;-78
2022/11/09 06:35:53;;;;;;;;;;;10.10;82.00;;;-151.14;100.00;62537.16;5094043;28;19919;-79
2022/11/09 06:38:22;;;;;;;;;;;10.10;82.10;;;-151.14;100.00;62537.16;5112468;28;19920;-79
2022/11/09 06:40:51;;;;;;;;;;;10.10;82.10;;;-151.14;100.00;62537.16;5093234;28;19920;-79
2022/11/09 06:43:19;;;;;;;;;;;10.10;82.20;;;-151.14;100.00;62537.16;5094439;28;20199;-79
2022/11/09 06:45:47;;;;;;;;;;;10.10;82.20;;;-151.14;100.00;62537.16;5111077;28;20111;-79
2022/11/09 06:48:15;;;;;;;;;;;10.10;82.20;;;18.08;100.00;62537.16;5094318;28;20114;-79
2022/11/09 06:50:43;;;;;;;;;;;10.10;82.20;;;-151.14;100.00;62537.16;5111118;28;19920;-79
2022/11/09 06:53:12;;;;;;;;;;;10.10;82.30;;;-151.14;100.00;62537.16;5094230;28;19919;-79
2022/11/09 06:55:42;;;;;;;;;;;10.10;82.30;;;-151.14;100.00;62537.16;5093691;28;19920;-79
2022/11/09 06:58:11;;;;;;;;;;;10.10;82.30;;;-151.14;100.00;62537.16;5094019;28;19920;-79
2022/11/09 07:00:39;;;;;;;;;;;10.10;82.40;;;-151.14;100.00;62537.16;5112552;28;19919;-79
2022/11/09 07:03:07;;;;;;;;;;;10.10;82.20;;;-151.14;100.00;62537.16;5077831;28;19920;-79
2022/11/09 07:05:38;;;;;;;;;;;10.10;82.20;;;-151.14;100.00;62537.16;5094295;28;19919;-79
2022/11/09 07:08:06;;;;;;;;;;;10.10;82.30;;;-151.14;100.00;62537.16;5094474;28;19920;-79
2022/11/09 07:10:34;;;;;;;;;;;10.10;82.20;;;-151.14;100.00;62537.16;5077798;28;19920;-79
2022/11/09 07:13:03;;;;;;;;;;;10.10;82.10;;;-151.14;100.00;62537.16;5096835;28;19920;-79
2022/11/09 07:15:31;;;;;;;;;;;10.10;82.20;;;-151.14;100.00;62537.16;5073626;28;19926;-79
2022/11/09 07:17:59;;;;;;;;;;;10.10;82.20;;;-151.14;100.00;62537.16;5074737;28;19920;-79
2022/11/09 07:20:27;;;;;;;;;;;10.10;82.20;;;-151.14;100.00;62537.16;5108408;28;19927;-79
2022/11/09 07:22:55;;;;;;;;;;;10.10;82.10;;;-151.14;100.00;62537.16;5074908;28;19920;-79
2022/11/09 07:25:23;;;;;;;;;;;10.10;82.10;;;-151.14;100.00;62537.16;5057568;28;19926;-79
2022/11/09 07:27:51;;;;;;;;;;;10.10;82.10;;;-151.14;100.00;62537.16;5057893;28;19920;-79
2022/11/09 07:30:21;;;;;;;;;;;10.10;82.10;;;-151.14;100.00;62537.16;5074699;28;20118;-79
2022/11/09 07:32:49;;;;;;;;;;;10.10;82.10;;;-151.14;100.00;62537.16;5111746;28;19926;-79
2022/11/09 07:35:17;;;;;;;;;;;10.10;82.10;;;-151.14;100.00;62537.16;5077561;28;19920;-79
2022/11/09 07:37:44;;;;;;;;;;;10.10;82.00;;;-151.14;100.00;62537.16;5094604;28;19926;-79
2022/11/09 07:40:13;;;;;;;;;;;10.10;82.20;;;-151.14;100.00;62537.16;5094857;28;19920;-79
2022/11/09 07:42:41;;;;;;;;;;;10.10;82.20;;;18.08;100.00;62537.16;5112085;28;20092;-79
2022/11/09 07:45:09;;;;;;;;;;;10.10;82.40;;;-151.14;100.00;62537.16;5094402;28;19933;-79
2022/11/09 07:47:39;;;;;;;;;;;10.10;82.30;;;-151.14;100.00;62537.16;5095319;28;19927;-79
2022/11/09 07:50:07;;;;;;;;;;;10.10;82.30;;;-151.14;100.00;62537.16;5078350;28;19942;-79
2022/11/09 07:52:35;;;;;;;;;;;10.10;82.30;;;-151.14;100.00;62537.16;5089721;28;19920;-78
2022/11/09 07:55:03;;;;;;;;;;;10.10;82.40;;;-151.14;100.00;62537.16;5077796;28;19920;-79
2022/11/09 07:57:31;;;;;;;;;;;10.10;82.40;;;-151.14;100.00;62537.16;5061918;28;19920;-79
2022/11/09 07:59:59;;;;;;;;;;;10.10;82.40;;;-151.14;100.00;62537.16;5078701;28;19924;-78
2022/11/09 08:02:26;;;;;;;;;;;10.10;82.40;;;-151.14;100.00;62537.16;5097096;28;20215;-79
2022/11/09 08:04:56;;;;;;;;;;;10.10;82.40;;;-151.14;100.00;62537.16;5061762;28;20119;-79
2022/11/09 08:07:24;;;;;;;;;;;10.10;82.40;;;-151.14;100.00;62537.16;5078571;28;19927;-79
2022/11/09 08:09:52;;;;;;;;;;;10.10;82.40;;;-151.14;100.00;62537.16;5062474;28;19924;-79
2022/11/09 08:12:20;;;;;;;;;;;10.20;82.30;;;-151.14;100.00;62537.16;5064127;28;19920;-79
2022/11/09 08:14:47;;;;;;;;;;;10.10;82.30;;;-151.14;100.00;62537.16;5116422;28;19926;-80
2022/11/09 08:17:15;;;;;;;;;;;10.10;82.20;;;-151.14;100.00;62537.16;5116201;28;19920;-79
2022/11/09 08:19:43;;;;;;;;;;;10.10;82.20;;;-151.14;100.00;62537.16;5116996;28;20233;-80
2022/11/09 08:22:13;;;;;;;;;;;10.10;82.20;;;-151.14;100.00;62537.16;5082727;28;19926;-79
2022/11/09 08:24:41;;;;;;;;;;;10.20;82.20;;;-151.14;100.00;62537.16;5075848;28;20207;-79
2022/11/09 08:27:09;;;;;;;;;;;10.20;82.20;;;-151.14;100.00;62537.16;5059673;28;19920;-79
2022/11/09 08:29:36;;;;;;;;;;;10.20;82.10;;;-151.14;100.00;62537.16;5059596;28;19926;-79
2022/11/09 08:32:04;;;;;;;;;;;10.20;82.20;;;-151.14;100.00;62537.16;5094095;28;19924;-79
2022/11/09 08:34:32;;;;;;;;;;;10.20;82.20;;;-151.14;100.00;62537.16;5075990;28;20233;-79
2022/11/09 08:37:01;;;;;;;;;;;10.20;82.10;;;-151.14;100.00;62537.16;5059092;28;20215;-79
2022/11/09 08:39:30;;;;;;;;;;;10.20;82.10;;;-151.14;100.00;62537.16;5094090;28;19920;-79
2022/11/09 08:41:58;;;;;;;;;;;10.20;82.00;;;-151.14;100.00;62537.16;5109907;28;20208;-79
2022/11/09 08:44:26;;;;;;;;;;;10.20;82.00;;;-151.14;100.00;62537.16;5076036;28;19920;-79
2022/11/09 08:46:54;;;;;;;;;;;10.20;82.10;;;-151.14;100.00;62537.16;5093516;28;19920;-79
2022/11/09 08:49:22;;;;;;;;;;;10.20;82.10;;;-151.14;100.00;62537.16;5059221;28;19926;-79
2022/11/09 08:51:50;;;;;;;;;;;10.20;82.10;;;-151.14;100.00;62537.16;5093934;28;19920;-79
2022/11/09 08:54:18;;;;;;;;;;;10.20;82.10;;;-151.14;100.00;62537.16;5075734;28;20221;-79
2022/11/09 08:56:47;;;;;;;;;;;10.20;82.00;;;-151.14;100.00;62537.16;5075853;28;19920;-79
2022/11/09 08:59:15;;;;;;;;;;;10.20;82.00;;;-151.14;100.00;62537.16;5058906;28;19920;-79
2022/11/09 09:01:43;;;;;;;;;;;10.20;82.10;;;-151.14;100.00;62537.16;5076073;28;19920;-79
2022/11/09 09:04:11;;;;;;;;;;;10.20;82.10;;;-151.14;100.00;62537.16;5092545;28;19926;-80
2022/11/09 09:06:39;;;;;;;;;;;10.20;82.10;;;-151.14;100.00;62537.16;5075164;28;19934;-79
2022/11/09 09:09:07;;;;;;;;;;;10.20;82.10;;;-151.14;100.00;62537.16;5075599;28;19920;-79
2022/11/09 09:11:35;;;;;;;;;;;10.20;82.00;;;-151.14;100.00;62537.16;5075698;28;19920;-79
2022/11/09 09:14:04;;;;;;;;;;;10.20;82.00;;;-151.14;100.00;62537.16;5058696;28;19921;-79
2022/11/09 09:16:32;;;;;;;;;;;10.20;82.10;;;-151.14;100.00;62537.16;5075387;28;20207;-78
2022/11/09 09:19:00;;;;;;;;;;;10.20;82.10;;;-151.14;100.00;62537.16;5075572;28;20112;-79
2022/11/09 09:21:28;;;;;;;;;;;10.20;82.10;;;-151.14;100.00;62537.16;5075642;28;20116;-79
2022/11/09 09:23:56;;;;;;;;;;;10.20;82.10;;;-151.14;100.00;62537.16;5093142;28;19920;-79
2022/11/09 09:26:24;;;;;;;;;;;10.20;82.00;;;-151.14;100.00;62537.16;5093019;28;20096;-79
2022/11/09 09:28:52;;;;;;;;;;;10.20;82.00;;;-151.14;100.00;62537.16;5093269;28;19920;-79
2022/11/09 09:31:21;;;;;;;;;;;10.20;81.90;;;-151.14;100.00;62537.16;5093154;28;19920;-79
2022/11/09 09:33:49;;;;;;;;;;;10.20;81.90;;;-151.14;100.00;62537.16;5074817;28;19920;-79
2022/11/09 09:36:18;;;;;;;;;;;10.20;81.90;;;-151.14;100.00;62537.16;5092809;28;19920;-79
2022/11/09 09:38:45;;;;;;;;;;;10.20;81.90;;;-151.14;100.00;62537.16;5075072;28;19920;-79
2022/11/09 09:41:17;;;;;;;;;;;10.20;81.90;;;-151.14;100.00;62537.16;5058537;28;19920;-79
2022/11/09 09:43:47;;;;;;;;;;;10.20;82.00;;;-151.14;100.00;62537.16;5074941;28;19927;-79
2022/11/09 09:46:17;;;;;;;;;;;10.20;82.00;;;-151.14;100.00;62537.16;5058024;28;19934;-79
2022/11/09 09:48:48;;;;;;;;;;;10.20;82.00;;;-151.14;100.00;62537.16;5091716;28;19927;-79
2022/11/09 09:51:19;;;;;;;;;;;10.20;81.90;;;-151.14;100.00;62537.16;5092109;28;19926;-79
2022/11/09 09:53:49;;;;;;;;;;;10.20;81.90;;;-151.14;100.00;62537.16;5075381;28;19920;-79
2022/11/09 09:56:19;;;;;;;;;;;10.20;81.90;;;-151.14;100.00;62537.16;5093502;28;20226;-79
2022/11/09 09:58:49;;;;;;;;;;;10.20;81.90;;;-151.14;100.00;62537.16;5059051;28;19921;-79
2022/11/09 10:01:19;;;;;;;;;;;10.20;81.90;;;-151.14;100.00;62537.16;5075365;28;19920;-80
2022/11/09 10:03:49;;;;;;;;;;;10.20;81.80;;;-151.14;100.00;62537.16;5075675;28;19920;-79
2022/11/09 10:06:30;;;;;;;;;;;10.20;81.80;;;-151.14;100.00;62537.16;5093558;28;19920;-79
2022/11/09 10:09:02;;;;;;;;;;;10.20;81.80;;;-151.14;100.00;62537.16;5093674;28;19920;-79
2022/11/09 10:11:32;;;;;;;;;;;10.20;81.70;;;-151.14;100.00;62537.16;5075549;28;19920;-79
2022/11/09 10:14:37;;;;;;;;;;;10.20;81.60;;;-151.14;100.00;62537.16;5075071;28;19926;-79
2022/11/09 10:17:10;;;;;;;;;;;10.20;81.70;;;-151.14;100.00;62537.16;5063363;28;20219;-79
2022/11/09 10:19:48;;;;;;;;;;;10.20;81.70;;;-151.14;100.00;62537.16;5092439;28;19921;-79
2022/11/09 10:22:19;;;;;;;;;;;10.20;81.70;;;-151.14;100.00;62537.16;5075734;28;19920;-80
2022/11/09 10:24:51;;;;;;;;;;;10.20;81.70;;;-151.14;100.00;62537.16;5075197;28;19920;-79
2022/11/09 10:27:34;;;;;;;;;;;10.20;81.70;;;-151.14;100.00;62537.16;5092448;28;20101;-79
2022/11/09 10:30:02;;;;;;;;;;;10.20;81.70;;;-151.14;100.00;62537.16;5093969;28;20211;-79
2022/11/09 10:32:31;;;;;;;;;;;10.20;81.80;;;-151.14;100.00;62537.16;5093567;28;20104;-79
2022/11/09 10:35:04;;;;;;;;;;;10.20;81.70;;;-151.14;100.00;62537.16;5074697;28;20123;-80
2022/11/09 10:37:34;;;;;;;;;;;10.20;81.60;;;-151.14;100.00;62537.16;5093462;28;19934;-79
2022/11/09 10:40:05;;;;;;;;;;;10.20;81.70;;;-151.14;100.00;62537.16;5094095;28;19920;-79
2022/11/09 10:42:54;;;;;;;;;;;10.20;81.60;;;-151.14;100.00;62537.16;5075691;28;19942;-79
2022/11/09 10:45:42;;;;;;;;;;;10.20;81.50;;;9.15;100.00;62537.16;5102296;28;19927;-79
2022/11/09 10:48:31;;;;;;;;;;;10.20;81.50;;;-151.14;100.00;62537.16;5095912;28;19926;-79
2022/11/09 10:51:38;;;;;;;;;;;10.20;81.50;;;-151.14;100.00;62537.16;5114042;28;19934;-79
2022/11/09 10:54:26;;;;;;;;;;;10.20;81.40;;;-151.14;100.00;62537.16;5113984;28;19926;-79
2022/11/09 10:57:19;;;;;;;;;;;10.20;81.40;;;-151.14;100.00;62537.16;5075934;28;19927;-79
2022/11/09 11:00:12;;;;;;;;;;;10.20;81.40;;;-151.14;100.00;62537.16;5075176;28;20115;-79
2022/11/09 11:02:59;;;;;;;;;;;10.30;81.50;;;-151.14;100.00;62537.16;5092757;28;20111;-79
2022/11/09 11:05:46;;;;;;;;;;;10.30;81.50;;;-151.14;100.00;62537.16;5093045;28;20119;-79